sensor_id;sensor_type;location;lat;lon;timestamp;P1;durP1;ratioP1;P2;durP2;ratioP2
68365;SDS011;55283;51.466;5.478;2022-12-10T00:00:11;2.95;;;2.28;;
68365;SDS011;55283;51.466;5.478;2022-12-10T00:02:37;3.30;;;2.53;;
68365;SDS011;55283;51.466;5.478;2022-12-10T00:05:02;3.10;;;2.45;;
68365;SDS011;55283;51.466;5.478;2022-12-10T00:07:28;3.03;;;2.63;;
68365;SDS011;55283;51.466;5.478;2022-12-10T00:09:56;3.35;;;2.60;;
68365;SDS011;55283;51.466;5.478;2022-12-10T00:12:21;3.37;;;2.70;;
68365;SDS011;55283;51.466;5.478;2022-12-10T00:14:47;3.97;;;2.80;;
68365;SDS011;55283;51.466;5.478;2022-12-10T00:17:12;2.87;;;2.43;;
68365;SDS011;55283;51.466;5.478;2022-12-10T00:19:37;3.77;;;2.67;;
68365;SDS011;55283;51.466;5.478;2022-12-10T00:22:05;3.58;;;2.67;;
68365;SDS011;55283;51.466;5.478;2022-12-10T00:24:31;3.50;;;2.60;;
68365;SDS011;55283;51.466;5.478;2022-12-10T00:27:05;3.55;;;2.80;;
68365;SDS011;55283;51.466;5.478;2022-12-10T00:29:30;3.73;;;2.80;;
68365;SDS011;55283;51.466;5.478;2022-12-10T00:31:56;2.80;;;2.50;;
68365;SDS011;55283;51.466;5.478;2022-12-10T00:34:21;2.90;;;2.53;;
68365;SDS011;55283;51.466;5.478;2022-12-10T00:36:47;2.88;;;2.58;;
68365;SDS011;55283;51.466;5.478;2022-12-10T00:39:19;2.90;;;2.43;;
68365;SDS011;55283;51.466;5.478;2022-12-10T00:41:48;4.18;;;2.85;;
68365;SDS011;55283;51.466;5.478;2022-12-10T00:44:14;3.67;;;2.70;;
68365;SDS011;55283;51.466;5.478;2022-12-10T00:46:40;4.25;;;2.60;;
68365;SDS011;55283;51.466;5.478;2022-12-10T00:49:06;3.13;;;2.72;;
68365;SDS011;55283;51.466;5.478;2022-12-10T00:51:38;3.28;;;2.53;;
68365;SDS011;55283;51.466;5.478;2022-12-10T00:54:06;3.50;;;2.53;;
68365;SDS011;55283;51.466;5.478;2022-12-10T00:56:36;3.85;;;2.60;;
68365;SDS011;55283;51.466;5.478;2022-12-10T00:59:05;3.23;;;2.57;;
68365;SDS011;55283;51.466;5.478;2022-12-10T01:01:31;3.00;;;2.70;;
68365;SDS011;55283;51.466;5.478;2022-12-10T01:04:09;4.03;;;2.70;;
68365;SDS011;55283;51.466;5.478;2022-12-10T01:06:43;3.35;;;2.65;;
68365;SDS011;55283;51.466;5.478;2022-12-10T01:09:13;3.35;;;2.80;;
68365;SDS011;55283;51.466;5.478;2022-12-10T01:11:40;2.90;;;2.40;;
68365;SDS011;55283;51.466;5.478;2022-12-10T01:14:08;2.92;;;2.45;;
68365;SDS011;55283;51.466;5.478;2022-12-10T01:16:39;3.03;;;2.72;;
68365;SDS011;55283;51.466;5.478;2022-12-10T01:19:04;3.03;;;2.50;;
68365;SDS011;55283;51.466;5.478;2022-12-10T01:21:30;3.60;;;2.75;;
68365;SDS011;55283;51.466;5.478;2022-12-10T01:23:56;4.10;;;2.57;;
68365;SDS011;55283;51.466;5.478;2022-12-10T01:26:24;3.80;;;2.97;;
68365;SDS011;55283;51.466;5.478;2022-12-10T01:28:51;3.30;;;2.80;;
68365;SDS011;55283;51.466;5.478;2022-12-10T01:31:24;3.28;;;2.90;;
68365;SDS011;55283;51.466;5.478;2022-12-10T01:33:52;3.42;;;2.80;;
68365;SDS011;55283;51.466;5.478;2022-12-10T01:38:46;3.63;;;2.78;;
68365;SDS011;55283;51.466;5.478;2022-12-10T01:41:26;3.00;;;2.22;;
68365;SDS011;55283;51.466;5.478;2022-12-10T01:46:17;2.97;;;2.67;;
68365;SDS011;55283;51.466;5.478;2022-12-10T01:48:45;3.53;;;2.60;;
68365;SDS011;55283;51.466;5.478;2022-12-10T01:51:12;2.85;;;2.55;;
68365;SDS011;55283;51.466;5.478;2022-12-10T01:53:38;3.85;;;2.70;;
68365;SDS011;55283;51.466;5.478;2022-12-10T01:56:03;3.30;;;2.60;;
68365;SDS011;55283;51.466;5.478;2022-12-10T01:58:29;3.43;;;2.73;;
68365;SDS011;55283;51.466;5.478;2022-12-10T02:03:33;2.97;;;2.50;;
68365;SDS011;55283;51.466;5.478;2022-12-10T02:06:06;3.10;;;2.50;;
68365;SDS011;55283;51.466;5.478;2022-12-10T02:09:04;3.72;;;2.70;;
68365;SDS011;55283;51.466;5.478;2022-12-10T02:11:57;3.03;;;2.60;;
68365;SDS011;55283;51.466;5.478;2022-12-10T02:14:38;3.17;;;2.63;;
68365;SDS011;55283;51.466;5.478;2022-12-10T02:17:14;3.38;;;2.85;;
68365;SDS011;55283;51.466;5.478;2022-12-10T02:22:42;3.97;;;2.88;;
68365;SDS011;55283;51.466;5.478;2022-12-10T02:25:14;3.03;;;2.40;;
68365;SDS011;55283;51.466;5.478;2022-12-10T02:27:57;3.95;;;2.95;;
68365;SDS011;55283;51.466;5.478;2022-12-10T02:30:42;3.28;;;2.70;;
68365;SDS011;55283;51.466;5.478;2022-12-10T02:33:10;3.10;;;2.50;;
68365;SDS011;55283;51.466;5.478;2022-12-10T02:35:38;3.22;;;2.80;;
68365;SDS011;55283;51.466;5.478;2022-12-10T02:38:14;3.95;;;2.80;;
68365;SDS011;55283;51.466;5.478;2022-12-10T02:40:51;3.60;;;2.80;;
68365;SDS011;55283;51.466;5.478;2022-12-10T02:43:27;3.50;;;2.67;;
68365;SDS011;55283;51.466;5.478;2022-12-10T02:46:01;3.05;;;2.58;;
68365;SDS011;55283;51.466;5.478;2022-12-10T02:48:28;3.33;;;2.67;;
68365;SDS011;55283;51.466;5.478;2022-12-10T02:50:55;3.27;;;2.73;;
68365;SDS011;55283;51.466;5.478;2022-12-10T02:53:21;3.10;;;2.57;;
68365;SDS011;55283;51.466;5.478;2022-12-10T02:55:56;3.45;;;2.80;;
68365;SDS011;55283;51.466;5.478;2022-12-10T03:03:59;3.15;;;2.60;;
68365;SDS011;55283;51.466;5.478;2022-12-10T03:06:32;3.00;;;2.67;;
68365;SDS011;55283;51.466;5.478;2022-12-10T03:12:16;2.90;;;2.50;;
68365;SDS011;55283;51.466;5.478;2022-12-10T03:14:50;3.40;;;2.87;;
68365;SDS011;55283;51.466;5.478;2022-12-10T03:17:15;2.80;;;2.47;;
68365;SDS011;55283;51.466;5.478;2022-12-10T03:19:43;3.78;;;2.97;;
68365;SDS011;55283;51.466;5.478;2022-12-10T03:22:13;3.25;;;2.55;;
68365;SDS011;55283;51.466;5.478;2022-12-10T03:24:41;3.00;;;2.60;;
68365;SDS011;55283;51.466;5.478;2022-12-10T03:27:11;3.83;;;2.85;;
68365;SDS011;55283;51.466;5.478;2022-12-10T03:29:40;3.92;;;3.00;;
68365;SDS011;55283;51.466;5.478;2022-12-10T03:32:19;3.43;;;2.67;;
68365;SDS011;55283;51.466;5.478;2022-12-10T03:34:47;3.30;;;2.72;;
68365;SDS011;55283;51.466;5.478;2022-12-10T03:37:18;3.00;;;2.58;;
68365;SDS011;55283;51.466;5.478;2022-12-10T03:39:44;3.13;;;2.77;;
68365;SDS011;55283;51.466;5.478;2022-12-10T03:42:10;3.03;;;2.50;;
68365;SDS011;55283;51.466;5.478;2022-12-10T03:44:37;4.25;;;2.80;;
68365;SDS011;55283;51.466;5.478;2022-12-10T03:47:05;3.63;;;2.70;;
68365;SDS011;55283;51.466;5.478;2022-12-10T03:49:33;3.20;;;2.80;;
68365;SDS011;55283;51.466;5.478;2022-12-10T03:51:59;3.53;;;2.80;;
68365;SDS011;55283;51.466;5.478;2022-12-10T03:54:24;3.97;;;2.80;;
68365;SDS011;55283;51.466;5.478;2022-12-10T03:56:50;3.43;;;2.80;;
68365;SDS011;55283;51.466;5.478;2022-12-10T03:59:15;3.10;;;2.80;;
68365;SDS011;55283;51.466;5.478;2022-12-10T04:01:43;3.53;;;2.80;;
68365;SDS011;55283;51.466;5.478;2022-12-10T04:04:09;3.47;;;2.80;;
68365;SDS011;55283;51.466;5.478;2022-12-10T04:06:42;4.07;;;3.00;;
68365;SDS011;55283;51.466;5.478;2022-12-10T04:09:11;3.83;;;2.60;;
68365;SDS011;55283;51.466;5.478;2022-12-10T04:11:38;3.13;;;2.43;;
68365;SDS011;55283;51.466;5.478;2022-12-10T04:14:03;3.30;;;2.85;;
68365;SDS011;55283;51.466;5.478;2022-12-10T04:16:48;4.03;;;3.10;;
68365;SDS011;55283;51.466;5.478;2022-12-10T04:19:14;3.03;;;2.55;;
68365;SDS011;55283;51.466;5.478;2022-12-10T04:21:42;3.00;;;2.53;;
68365;SDS011;55283;51.466;5.478;2022-12-10T04:24:27;3.27;;;2.90;;
68365;SDS011;55283;51.466;5.478;2022-12-10T04:27:35;3.20;;;2.40;;
68365;SDS011;55283;51.466;5.478;2022-12-10T04:30:04;3.60;;;2.67;;
68365;SDS011;55283;51.466;5.478;2022-12-10T04:32:31;3.00;;;2.70;;
68365;SDS011;55283;51.466;5.478;2022-12-10T04:34:58;3.42;;;2.85;;
68365;SDS011;55283;51.466;5.478;2022-12-10T04:37:25;3.28;;;2.55;;
68365;SDS011;55283;51.466;5.478;2022-12-10T04:39:52;3.43;;;2.90;;
68365;SDS011;55283;51.466;5.478;2022-12-10T04:42:17;3.08;;;2.78;;
68365;SDS011;55283;51.466;5.478;2022-12-10T04:44:43;2.90;;;2.57;;
68365;SDS011;55283;51.466;5.478;2022-12-10T04:47:09;3.13;;;2.47;;
68365;SDS011;55283;51.466;5.478;2022-12-10T04:49:38;3.58;;;2.80;;
68365;SDS011;55283;51.466;5.478;2022-12-10T04:52:05;2.83;;;2.33;;
68365;SDS011;55283;51.466;5.478;2022-12-10T04:54:31;3.20;;;2.70;;
68365;SDS011;55283;51.466;5.478;2022-12-10T04:56:57;3.07;;;2.60;;
68365;SDS011;55283;51.466;5.478;2022-12-10T04:59:22;3.53;;;2.67;;
68365;SDS011;55283;51.466;5.478;2022-12-10T05:01:48;3.63;;;2.63;;
68365;SDS011;55283;51.466;5.478;2022-12-10T05:04:14;3.40;;;2.70;;
68365;SDS011;55283;51.466;5.478;2022-12-10T05:06:41;3.17;;;2.50;;
68365;SDS011;55283;51.466;5.478;2022-12-10T05:09:12;3.83;;;3.00;;
68365;SDS011;55283;51.466;5.478;2022-12-10T05:11:38;3.83;;;2.95;;
68365;SDS011;55283;51.466;5.478;2022-12-10T05:14:04;3.40;;;2.80;;
68365;SDS011;55283;51.466;5.478;2022-12-10T05:16:31;3.97;;;2.63;;
68365;SDS011;55283;51.466;5.478;2022-12-10T05:18:59;3.57;;;2.63;;
68365;SDS011;55283;51.466;5.478;2022-12-10T05:21:29;3.40;;;2.90;;
68365;SDS011;55283;51.466;5.478;2022-12-10T05:24:14;3.70;;;2.97;;
68365;SDS011;55283;51.466;5.478;2022-12-10T05:26:40;2.93;;;2.63;;
68365;SDS011;55283;51.466;5.478;2022-12-10T05:29:06;3.00;;;2.50;;
68365;SDS011;55283;51.466;5.478;2022-12-10T05:31:32;3.13;;;2.70;;
68365;SDS011;55283;51.466;5.478;2022-12-10T05:33:57;3.30;;;2.60;;
68365;SDS011;55283;51.466;5.478;2022-12-10T05:36:24;3.00;;;2.70;;
68365;SDS011;55283;51.466;5.478;2022-12-10T05:38:52;3.50;;;2.65;;
68365;SDS011;55283;51.466;5.478;2022-12-10T05:41:20;3.00;;;2.58;;
68365;SDS011;55283;51.466;5.478;2022-12-10T05:43:48;3.50;;;2.90;;
68365;SDS011;55283;51.466;5.478;2022-12-10T05:46:16;3.23;;;2.80;;
68365;SDS011;55283;51.466;5.478;2022-12-10T05:48:43;3.58;;;2.80;;
68365;SDS011;55283;51.466;5.478;2022-12-10T05:51:10;4.10;;;2.90;;
68365;SDS011;55283;51.466;5.478;2022-12-10T05:53:37;3.72;;;2.80;;
68365;SDS011;55283;51.466;5.478;2022-12-10T05:56:13;3.08;;;2.70;;
68365;SDS011;55283;51.466;5.478;2022-12-10T05:58:42;3.25;;;2.60;;
68365;SDS011;55283;51.466;5.478;2022-12-10T06:01:12;3.03;;;2.73;;
68365;SDS011;55283;51.466;5.478;2022-12-10T06:03:39;3.45;;;2.78;;
68365;SDS011;55283;51.466;5.478;2022-12-10T06:06:05;4.30;;;2.90;;
68365;SDS011;55283;51.466;5.478;2022-12-10T06:08:31;3.38;;;2.70;;
68365;SDS011;55283;51.466;5.478;2022-12-10T06:11:00;3.63;;;2.53;;
68365;SDS011;55283;51.466;5.478;2022-12-10T06:13:26;3.27;;;2.77;;
68365;SDS011;55283;51.466;5.478;2022-12-10T06:15:51;3.05;;;2.42;;
68365;SDS011;55283;51.466;5.478;2022-12-10T06:18:19;3.80;;;2.90;;
68365;SDS011;55283;51.466;5.478;2022-12-10T06:20:45;3.13;;;2.63;;
68365;SDS011;55283;51.466;5.478;2022-12-10T06:23:11;2.97;;;2.67;;
68365;SDS011;55283;51.466;5.478;2022-12-10T06:25:38;3.38;;;2.80;;
68365;SDS011;55283;51.466;5.478;2022-12-10T06:28:05;2.50;;;2.30;;
68365;SDS011;55283;51.466;5.478;2022-12-10T06:30:31;3.00;;;2.70;;
68365;SDS011;55283;51.466;5.478;2022-12-10T06:32:56;3.20;;;2.65;;
68365;SDS011;55283;51.466;5.478;2022-12-10T06:35:24;3.03;;;2.50;;
68365;SDS011;55283;51.466;5.478;2022-12-10T06:37:51;4.10;;;2.40;;
68365;SDS011;55283;51.466;5.478;2022-12-10T06:40:16;3.40;;;2.70;;
68365;SDS011;55283;51.466;5.478;2022-12-10T06:42:44;4.45;;;2.60;;
68365;SDS011;55283;51.466;5.478;2022-12-10T06:45:12;3.00;;;2.50;;
68365;SDS011;55283;51.466;5.478;2022-12-10T06:47:38;2.97;;;2.40;;
68365;SDS011;55283;51.466;5.478;2022-12-10T06:50:03;4.07;;;2.87;;
68365;SDS011;55283;51.466;5.478;2022-12-10T06:52:29;3.65;;;2.80;;
68365;SDS011;55283;51.466;5.478;2022-12-10T06:54:57;5.05;;;2.80;;
68365;SDS011;55283;51.466;5.478;2022-12-10T06:57:22;3.27;;;2.60;;
68365;SDS011;55283;51.466;5.478;2022-12-10T06:59:48;7.60;;;2.50;;
68365;SDS011;55283;51.466;5.478;2022-12-10T07:02:16;3.45;;;2.50;;
68365;SDS011;55283;51.466;5.478;2022-12-10T07:04:44;4.47;;;2.65;;
68365;SDS011;55283;51.466;5.478;2022-12-10T07:07:09;3.10;;;2.53;;
68365;SDS011;55283;51.466;5.478;2022-12-10T07:09:35;4.07;;;2.43;;
68365;SDS011;55283;51.466;5.478;2022-12-10T07:12:00;3.70;;;2.63;;
68365;SDS011;55283;51.466;5.478;2022-12-10T07:14:26;3.30;;;2.87;;
68365;SDS011;55283;51.466;5.478;2022-12-10T07:16:54;4.25;;;2.60;;
68365;SDS011;55283;51.466;5.478;2022-12-10T07:19:25;3.42;;;2.60;;
68365;SDS011;55283;51.466;5.478;2022-12-10T07:21:50;3.60;;;2.47;;
68365;SDS011;55283;51.466;5.478;2022-12-10T07:24:24;3.80;;;2.60;;
68365;SDS011;55283;51.466;5.478;2022-12-10T07:26:49;18.23;;;10.52;;
68365;SDS011;55283;51.466;5.478;2022-12-10T07:29:18;21.92;;;13.95;;
68365;SDS011;55283;51.466;5.478;2022-12-10T07:31:46;19.73;;;12.70;;
68365;SDS011;55283;51.466;5.478;2022-12-10T07:34:21;12.48;;;8.25;;
68365;SDS011;55283;51.466;5.478;2022-12-10T07:36:46;12.73;;;7.67;;
68365;SDS011;55283;51.466;5.478;2022-12-10T07:39:15;11.48;;;7.15;;
68365;SDS011;55283;51.466;5.478;2022-12-10T07:41:47;13.87;;;8.40;;
68365;SDS011;55283;51.466;5.478;2022-12-10T07:44:15;13.57;;;8.00;;
68365;SDS011;55283;51.466;5.478;2022-12-10T07:46:44;12.98;;;7.82;;
68365;SDS011;55283;51.466;5.478;2022-12-10T07:49:10;12.93;;;7.57;;
68365;SDS011;55283;51.466;5.478;2022-12-10T07:51:35;9.83;;;6.87;;
68365;SDS011;55283;51.466;5.478;2022-12-10T07:54:01;9.82;;;6.90;;
68365;SDS011;55283;51.466;5.478;2022-12-10T07:56:27;10.60;;;6.50;;
68365;SDS011;55283;51.466;5.478;2022-12-10T07:58:52;10.17;;;6.90;;
68365;SDS011;55283;51.466;5.478;2022-12-10T08:01:21;11.50;;;6.60;;
68365;SDS011;55283;51.466;5.478;2022-12-10T08:03:49;11.60;;;6.45;;
68365;SDS011;55283;51.466;5.478;2022-12-10T08:06:15;11.65;;;6.85;;
68365;SDS011;55283;51.466;5.478;2022-12-10T08:08:43;9.67;;;6.23;;
68365;SDS011;55283;51.466;5.478;2022-12-10T08:11:10;10.23;;;6.53;;
68365;SDS011;55283;51.466;5.478;2022-12-10T08:13:36;9.82;;;7.40;;
68365;SDS011;55283;51.466;5.478;2022-12-10T08:18:29;12.73;;;6.70;;
68365;SDS011;55283;51.466;5.478;2022-12-10T08:20:55;9.85;;;6.38;;
68365;SDS011;55283;51.466;5.478;2022-12-10T08:23:21;8.87;;;6.10;;
68365;SDS011;55283;51.466;5.478;2022-12-10T08:25:46;10.30;;;6.47;;
68365;SDS011;55283;51.466;5.478;2022-12-10T08:28:11;8.23;;;6.00;;
68365;SDS011;55283;51.466;5.478;2022-12-10T08:30:37;9.73;;;6.27;;
68365;SDS011;55283;51.466;5.478;2022-12-10T08:33:02;9.32;;;6.55;;
68365;SDS011;55283;51.466;5.478;2022-12-10T08:35:28;10.70;;;7.30;;
68365;SDS011;55283;51.466;5.478;2022-12-10T08:37:59;11.23;;;5.88;;
68365;SDS011;55283;51.466;5.478;2022-12-10T08:40:24;13.40;;;5.87;;
68365;SDS011;55283;51.466;5.478;2022-12-10T08:42:51;9.67;;;6.00;;
68365;SDS011;55283;51.466;5.478;2022-12-10T08:45:16;9.02;;;5.68;;
68365;SDS011;55283;51.466;5.478;2022-12-10T08:47:44;10.00;;;6.13;;
68365;SDS011;55283;51.466;5.478;2022-12-10T08:50:09;9.27;;;5.80;;
68365;SDS011;55283;51.466;5.478;2022-12-10T08:52:37;8.15;;;5.72;;
68365;SDS011;55283;51.466;5.478;2022-12-10T08:55:03;8.57;;;6.03;;
68365;SDS011;55283;51.466;5.478;2022-12-10T08:57:28;8.82;;;5.75;;
68365;SDS011;55283;51.466;5.478;2022-12-10T08:59:54;9.23;;;5.90;;
68365;SDS011;55283;51.466;5.478;2022-12-10T09:02:19;9.73;;;5.90;;
68365;SDS011;55283;51.466;5.478;2022-12-10T09:04:45;9.03;;;6.33;;
68365;SDS011;55283;51.466;5.478;2022-12-10T09:07:14;8.98;;;5.70;;
68365;SDS011;55283;51.466;5.478;2022-12-10T09:09:40;9.60;;;5.67;;
68365;SDS011;55283;51.466;5.478;2022-12-10T09:12:05;8.17;;;5.67;;
68365;SDS011;55283;51.466;5.478;2022-12-10T09:14:30;7.87;;;5.70;;
68365;SDS011;55283;51.466;5.478;2022-12-10T09:16:57;9.90;;;5.85;;
68365;SDS011;55283;51.466;5.478;2022-12-10T09:19:22;9.43;;;5.80;;
68365;SDS011;55283;51.466;5.478;2022-12-10T09:21:51;8.15;;;5.50;;
68365;SDS011;55283;51.466;5.478;2022-12-10T09:24:16;8.57;;;5.20;;
68365;SDS011;55283;51.466;5.478;2022-12-10T09:26:44;7.07;;;5.20;;
68365;SDS011;55283;51.466;5.478;2022-12-10T09:29:09;9.10;;;5.38;;
68365;SDS011;55283;51.466;5.478;2022-12-10T09:31:40;11.57;;;6.80;;
68365;SDS011;55283;51.466;5.478;2022-12-10T09:34:09;8.97;;;5.93;;
68365;SDS011;55283;51.466;5.478;2022-12-10T09:36:35;7.35;;;5.25;;
68365;SDS011;55283;51.466;5.478;2022-12-10T09:39:01;6.97;;;5.10;;
68365;SDS011;55283;51.466;5.478;2022-12-10T09:41:32;7.05;;;5.35;;
68365;SDS011;55283;51.466;5.478;2022-12-10T09:47:02;6.73;;;5.00;;
68365;SDS011;55283;51.466;5.478;2022-12-10T09:52:23;7.68;;;5.28;;
68365;SDS011;55283;51.466;5.478;2022-12-10T09:54:54;6.93;;;5.33;;
68365;SDS011;55283;51.466;5.478;2022-12-10T09:57:28;6.15;;;4.85;;
68365;SDS011;55283;51.466;5.478;2022-12-10T10:00:00;7.57;;;5.32;;
68365;SDS011;55283;51.466;5.478;2022-12-10T10:02:32;8.67;;;5.47;;
68365;SDS011;55283;51.466;5.478;2022-12-10T10:04:59;6.85;;;5.05;;
68365;SDS011;55283;51.466;5.478;2022-12-10T10:07:26;8.65;;;5.35;;
68365;SDS011;55283;51.466;5.478;2022-12-10T10:09:59;6.60;;;5.07;;
68365;SDS011;55283;51.466;5.478;2022-12-10T10:12:30;7.93;;;5.32;;
68365;SDS011;55283;51.466;5.478;2022-12-10T10:15:00;7.70;;;5.35;;
68365;SDS011;55283;51.466;5.478;2022-12-10T10:17:39;7.10;;;5.30;;
68365;SDS011;55283;51.466;5.478;2022-12-10T10:20:10;10.73;;;5.60;;
68365;SDS011;55283;51.466;5.478;2022-12-10T10:22:37;7.43;;;4.97;;
68365;SDS011;55283;51.466;5.478;2022-12-10T10:25:03;7.87;;;5.00;;
68365;SDS011;55283;51.466;5.478;2022-12-10T10:27:31;9.13;;;4.82;;
68365;SDS011;55283;51.466;5.478;2022-12-10T10:30:02;7.85;;;5.30;;
68365;SDS011;55283;51.466;5.478;2022-12-10T10:35:00;6.97;;;4.82;;
68365;SDS011;55283;51.466;5.478;2022-12-10T10:40:00;6.73;;;5.17;;
68365;SDS011;55283;51.466;5.478;2022-12-10T10:42:38;7.13;;;4.82;;
68365;SDS011;55283;51.466;5.478;2022-12-10T10:45:29;6.43;;;4.43;;
68365;SDS011;55283;51.466;5.478;2022-12-10T10:48:13;8.73;;;5.10;;
68365;SDS011;55283;51.466;5.478;2022-12-10T10:50:43;7.70;;;5.05;;
68365;SDS011;55283;51.466;5.478;2022-12-10T11:01:51;7.10;;;5.20;;
68365;SDS011;55283;51.466;5.478;2022-12-10T11:04:30;6.43;;;4.80;;
68365;SDS011;55283;51.466;5.478;2022-12-10T11:07:02;9.05;;;5.30;;
68365;SDS011;55283;51.466;5.478;2022-12-10T11:09:29;7.80;;;5.00;;
68365;SDS011;55283;51.466;5.478;2022-12-10T11:11:59;8.80;;;5.07;;
68365;SDS011;55283;51.466;5.478;2022-12-10T11:14:31;6.63;;;4.82;;
68365;SDS011;55283;51.466;5.478;2022-12-10T11:19:36;7.13;;;5.00;;
68365;SDS011;55283;51.466;5.478;2022-12-10T11:24:48;8.70;;;5.03;;
68365;SDS011;55283;51.466;5.478;2022-12-10T11:30:18;7.60;;;4.90;;
68365;SDS011;55283;51.466;5.478;2022-12-10T11:35:39;7.68;;;5.00;;
68365;SDS011;55283;51.466;5.478;2022-12-10T11:58:11;7.73;;;5.20;;
68365;SDS011;55283;51.466;5.478;2022-12-10T12:12:17;7.75;;;4.80;;
68365;SDS011;55283;51.466;5.478;2022-12-10T12:15:03;6.97;;;5.10;;
68365;SDS011;55283;51.466;5.478;2022-12-10T12:17:53;8.00;;;5.03;;
68365;SDS011;55283;51.466;5.478;2022-12-10T12:20:30;8.02;;;5.20;;
68365;SDS011;55283;51.466;5.478;2022-12-10T12:23:04;9.00;;;4.88;;
68365;SDS011;55283;51.466;5.478;2022-12-10T12:25:44;7.27;;;5.07;;
68365;SDS011;55283;51.466;5.478;2022-12-10T12:31:15;7.05;;;4.80;;
68365;SDS011;55283;51.466;5.478;2022-12-10T12:33:46;6.87;;;4.80;;
68365;SDS011;55283;51.466;5.478;2022-12-10T12:36:24;7.95;;;4.88;;
68365;SDS011;55283;51.466;5.478;2022-12-10T12:39:02;6.97;;;4.65;;
68365;SDS011;55283;51.466;5.478;2022-12-10T12:41:46;9.23;;;4.67;;
68365;SDS011;55283;51.466;5.478;2022-12-10T12:44:22;7.53;;;4.95;;
68365;SDS011;55283;51.466;5.478;2022-12-10T12:46:54;7.28;;;4.70;;
68365;SDS011;55283;51.466;5.478;2022-12-10T12:49:31;7.75;;;4.88;;
68365;SDS011;55283;51.466;5.478;2022-12-10T12:55:20;7.05;;;5.07;;
68365;SDS011;55283;51.466;5.478;2022-12-10T12:58:03;8.02;;;4.85;;
68365;SDS011;55283;51.466;5.478;2022-12-10T13:00:42;7.70;;;4.87;;
68365;SDS011;55283;51.466;5.478;2022-12-10T13:06:13;8.57;;;5.10;;
68365;SDS011;55283;51.466;5.478;2022-12-10T13:09:23;9.80;;;5.00;;
68365;SDS011;55283;51.466;5.478;2022-12-10T13:21:57;8.93;;;6.00;;
68365;SDS011;55283;51.466;5.478;2022-12-10T13:25:14;8.13;;;5.63;;
68365;SDS011;55283;51.466;5.478;2022-12-10T13:27:42;7.72;;;5.50;;
68365;SDS011;55283;51.466;5.478;2022-12-10T13:30:29;10.07;;;5.75;;
68365;SDS011;55283;51.466;5.478;2022-12-10T13:33:18;10.10;;;5.40;;
68365;SDS011;55283;51.466;5.478;2022-12-10T13:35:58;8.13;;;5.65;;
68365;SDS011;55283;51.466;5.478;2022-12-10T13:38:27;8.40;;;5.45;;
68365;SDS011;55283;51.466;5.478;2022-12-10T13:41:01;8.10;;;5.60;;
68365;SDS011;55283;51.466;5.478;2022-12-10T13:43:57;7.78;;;5.53;;
68365;SDS011;55283;51.466;5.478;2022-12-10T13:46:53;8.57;;;5.53;;
68365;SDS011;55283;51.466;5.478;2022-12-10T13:49:28;7.77;;;5.30;;
68365;SDS011;55283;51.466;5.478;2022-12-10T13:57:37;7.77;;;5.43;;
68365;SDS011;55283;51.466;5.478;2022-12-10T14:00:19;7.30;;;5.35;;
68365;SDS011;55283;51.466;5.478;2022-12-10T14:05:31;8.37;;;5.17;;
68365;SDS011;55283;51.466;5.478;2022-12-10T14:08:01;9.00;;;5.50;;
68365;SDS011;55283;51.466;5.478;2022-12-10T14:10:32;7.63;;;5.20;;
68365;SDS011;55283;51.466;5.478;2022-12-10T14:13:03;8.20;;;5.30;;
68365;SDS011;55283;51.466;5.478;2022-12-10T14:15:30;9.07;;;5.63;;
68365;SDS011;55283;51.466;5.478;2022-12-10T14:18:00;8.00;;;5.32;;
68365;SDS011;55283;51.466;5.478;2022-12-10T14:20:29;7.57;;;5.03;;
68365;SDS011;55283;51.466;5.478;2022-12-10T14:23:04;6.37;;;4.90;;
68365;SDS011;55283;51.466;5.478;2022-12-10T14:26:04;6.85;;;4.93;;
68365;SDS011;55283;51.466;5.478;2022-12-10T14:28:43;6.32;;;4.82;;
68365;SDS011;55283;51.466;5.478;2022-12-10T14:31:12;7.00;;;5.00;;
68365;SDS011;55283;51.466;5.478;2022-12-10T14:33:40;7.03;;;5.10;;
68365;SDS011;55283;51.466;5.478;2022-12-10T14:36:06;7.57;;;5.22;;
68365;SDS011;55283;51.466;5.478;2022-12-10T14:38:32;6.70;;;4.70;;
68365;SDS011;55283;51.466;5.478;2022-12-10T14:40:59;7.00;;;5.03;;
68365;SDS011;55283;51.466;5.478;2022-12-10T14:46:05;9.43;;;5.43;;
68365;SDS011;55283;51.466;5.478;2022-12-10T14:48:40;7.15;;;4.72;;
68365;SDS011;55283;51.466;5.478;2022-12-10T14:51:13;6.40;;;4.50;;
68365;SDS011;55283;51.466;5.478;2022-12-10T14:53:40;7.80;;;5.18;;
68365;SDS011;55283;51.466;5.478;2022-12-10T14:56:05;6.47;;;4.57;;
68365;SDS011;55283;51.466;5.478;2022-12-10T15:01:13;7.70;;;5.18;;
68365;SDS011;55283;51.466;5.478;2022-12-10T15:03:47;7.72;;;5.32;;
68365;SDS011;55283;51.466;5.478;2022-12-10T15:06:14;6.80;;;4.93;;
68365;SDS011;55283;51.466;5.478;2022-12-10T15:08:43;6.20;;;4.78;;
68365;SDS011;55283;51.466;5.478;2022-12-10T15:11:18;6.65;;;4.90;;
68365;SDS011;55283;51.466;5.478;2022-12-10T15:13:46;8.13;;;5.20;;
68365;SDS011;55283;51.466;5.478;2022-12-10T15:16:19;7.03;;;5.20;;
68365;SDS011;55283;51.466;5.478;2022-12-10T15:19:20;5.70;;;4.60;;
68365;SDS011;55283;51.466;5.478;2022-12-10T15:21:54;6.85;;;4.70;;
68365;SDS011;55283;51.466;5.478;2022-12-10T15:24:38;6.43;;;4.80;;
68365;SDS011;55283;51.466;5.478;2022-12-10T15:27:19;6.93;;;4.72;;
68365;SDS011;55283;51.466;5.478;2022-12-10T15:29:46;7.78;;;4.85;;
68365;SDS011;55283;51.466;5.478;2022-12-10T15:32:18;7.13;;;4.70;;
68365;SDS011;55283;51.466;5.478;2022-12-10T15:34:54;8.70;;;5.13;;
68365;SDS011;55283;51.466;5.478;2022-12-10T15:37:27;6.68;;;4.70;;
68365;SDS011;55283;51.466;5.478;2022-12-10T15:40:01;6.78;;;5.00;;
68365;SDS011;55283;51.466;5.478;2022-12-10T15:42:37;7.17;;;5.17;;
68365;SDS011;55283;51.466;5.478;2022-12-10T15:45:20;6.38;;;4.80;;
68365;SDS011;55283;51.466;5.478;2022-12-10T15:47:47;7.07;;;4.68;;
68365;SDS011;55283;51.466;5.478;2022-12-10T15:50:14;6.83;;;4.97;;
68365;SDS011;55283;51.466;5.478;2022-12-10T15:52:42;6.57;;;4.78;;
68365;SDS011;55283;51.466;5.478;2022-12-10T15:55:12;6.03;;;4.60;;
68365;SDS011;55283;51.466;5.478;2022-12-10T15:57:38;7.43;;;4.40;;
68365;SDS011;55283;51.466;5.478;2022-12-10T16:00:19;8.57;;;4.50;;
68365;SDS011;55283;51.466;5.478;2022-12-10T16:03:20;6.68;;;4.80;;
68365;SDS011;55283;51.466;5.478;2022-12-10T16:05:42;6.70;;;4.82;;
68365;SDS011;55283;51.466;5.478;2022-12-10T16:08:17;6.37;;;4.70;;
68365;SDS011;55283;51.466;5.478;2022-12-10T16:10:54;8.48;;;4.85;;
68365;SDS011;55283;51.466;5.478;2022-12-10T16:13:28;16.92;;;7.97;;
68365;SDS011;55283;51.466;5.478;2022-12-10T16:16:08;47.87;;;24.03;;
68365;SDS011;55283;51.466;5.478;2022-12-10T16:18:34;58.33;;;31.73;;
68365;SDS011;55283;51.466;5.478;2022-12-10T16:21:03;72.70;;;37.47;;
68365;SDS011;55283;51.466;5.478;2022-12-10T16:23:30;70.00;;;37.70;;
68365;SDS011;55283;51.466;5.478;2022-12-10T16:25:56;64.68;;;34.05;;
68365;SDS011;55283;51.466;5.478;2022-12-10T16:28:23;70.30;;;34.28;;
68365;SDS011;55283;51.466;5.478;2022-12-10T16:30:49;63.30;;;31.65;;
68365;SDS011;55283;51.466;5.478;2022-12-10T16:33:17;62.30;;;31.00;;
68365;SDS011;55283;51.466;5.478;2022-12-10T16:35:43;55.40;;;31.35;;
68365;SDS011;55283;51.466;5.478;2022-12-10T16:38:09;57.30;;;31.10;;
68365;SDS011;55283;51.466;5.478;2022-12-10T16:40:35;57.27;;;30.30;;
68365;SDS011;55283;51.466;5.478;2022-12-10T16:43:01;54.45;;;29.40;;
68365;SDS011;55283;51.466;5.478;2022-12-10T16:45:31;50.30;;;26.87;;
68365;SDS011;55283;51.466;5.478;2022-12-10T16:47:59;52.92;;;25.60;;
68365;SDS011;55283;51.466;5.478;2022-12-10T16:50:25;46.63;;;23.87;;
68365;SDS011;55283;51.466;5.478;2022-12-10T16:52:54;45.20;;;22.85;;
68365;SDS011;55283;51.466;5.478;2022-12-10T16:55:23;44.93;;;23.03;;
68365;SDS011;55283;51.466;5.478;2022-12-10T16:57:52;41.45;;;21.20;;
68365;SDS011;55283;51.466;5.478;2022-12-10T17:00:19;39.95;;;22.30;;